Watertown, NY (13601)

12:00 AM EST on January 17, 2017 (GMT -0500)
Watertown WWTP | | Change Station
Active Advisory: Winter Weather Advisory

Elev 426 ft 43.99 °N, 75.93 °W | Updated 1 minute ago

Clear
Clear
29.9 °F
Feels Like 30 °F
N
0.0
Wind Variable Wind from SSW
Gusts 2.0 mph

Today
High -- | Low -- °F
--% Chance of Precip.
Yesterday
High -- | Low -- °F
Precip. -- in
Pressure 30.25 in
Visibility 10.0 miles
Clouds Clear
Windchill 30 °F
Dew Point 25 °F
Humidity 82%
Rainfall 0.00 in
Snow Depth Not available.
7:33 AM 4:54 PM
Waning Gibbous, 75% visible
METAR KART 170456Z AUTO 00000KT 10SM CLR M06/M07 A3023 RMK AO2 SLP241 T10611072 400221072 $
Pressure 30.25 in
Visibility 10.0 miles
Clouds Clear
Windchill 30 °F
Dew Point 25 °F
Humidity 82%
Rainfall 0.00 in
Snow Depth Not available.
7:33 AM 4:54 PM
Waning Gibbous, 75% visible
METAR KART 170456Z AUTO 00000KT 10SM CLR M06/M07 A3023 RMK AO2 SLP241 T10611072 400221072 $

Get Your Daily Forecast Email!

Thanks for signing up!

Be on the lookout for a verification email in your inbox.

You'll start receiving the daily forecast at 8 AM.

×

10-Day Weather Forecast

Almanac

Astronomy

Jan. 17, 2017 Rise Set
Actual Time
Civil Twilight
Nautical Twilight
Astronomical Twilight
Moon
Length of Visible Light
Length of Day
Tomorrow will be .
, % of the Moon is Illuminated

Today's Extremes

State Highs State Lows

Community

WunderPhotos

Upload Photos

1,962,540 photos uploaded!

WunderBlog® & News

Nearby

Air Quality

  Air Quality AQ Index Pollutant
Not available.

Snow Depth

Station Depth Elevation

Earthquake Activity

City Distance Mag. Time & Date
Minimum magnitude displayed is 2.5.

Coastal Water Temperatures

Place Temperature

Stations

Nearby Weather Stations

Station Location Temp. Windchill Dew Point Humidity Wind Precip. Elev Updated Type
                   

Watches & Warnings

Winter Weather Advisory
Issued: 8:27 PM EST Jan. 16, 2017 – National Weather Service

... Winter Weather Advisory remains in effect from 7 am Tuesday to
4 am EST Wednesday...

* locations... Jefferson and Lewis counties.

* Timing... from early Tuesday morning through late Tuesday night.

* Hazards... freezing rain and sleet.

* Accumulations... ice accumulating up to a tenth of an inch in
most locations... except in the Saint Lawrence valley where up to
a quarter inch of ice is possible.

* Impacts... sleet and freezing rain will bring very slippery
conditions on untreated roads and sidewalks.

Precautionary/preparedness actions...

A Winter Weather Advisory is normally issued for a variety of
winter weather conditions such as light snow... blowing snow...
sleet... freezing rain and wind chills. While the weather will be
significant... the word advisory implies that severe winter
weather is not anticipated.

Report ice accumulation to the National Weather Service in
Buffalo by sending an email to bufstorm.Report@noaa.Gov... posting
to the NWS Buffalo facebook Page... or tweet... using the hashtag
bufwx



Jjr